createdAt,value
2022-11-14T00:04:47.217Z,1.33
2022-11-14T00:09:48.808Z,1.58
2022-11-14T00:14:50.285Z,1.15
2022-11-14T00:19:51.746Z,1.15
2022-11-14T00:24:53.272Z,0.50
2022-11-14T00:29:54.777Z,1.08
2022-11-14T00:34:56.253Z,0.95
2022-11-14T00:39:57.709Z,1.02
2022-11-14T00:44:59.154Z,0.90
2022-11-14T00:50:00.706Z,2.75
2022-11-14T00:55:02.200Z,0.30
2022-11-14T01:00:04.785Z,0.47
2022-11-14T01:05:06.579Z,0.98
2022-11-14T01:10:08.737Z,1.25
2022-11-14T01:15:10.619Z,0.98
2022-11-14T01:20:12.039Z,0.65
2022-11-14T01:25:13.443Z,1.05
2022-11-14T01:30:15.100Z,1.23
2022-11-14T01:35:16.711Z,0.52
2022-11-14T01:40:20.734Z,0.43
2022-11-14T01:45:57.921Z,0.60
2022-11-14T01:51:12.226Z,0.50
2022-11-14T01:56:17.357Z,0.70
2022-11-14T02:01:18.981Z,0.70
2022-11-14T02:06:22.567Z,0.57
2022-11-14T02:11:24.058Z,0.40
2022-11-14T02:16:26.882Z,0.93
2022-11-14T02:21:28.437Z,0.50
2022-11-14T02:26:34.318Z,0.70
2022-11-14T02:31:38.304Z,0.75
2022-11-14T02:36:39.763Z,0.60
2022-11-14T02:41:41.275Z,0.70
2022-11-14T02:46:42.751Z,0.60
2022-11-14T02:51:44.165Z,1.02
2022-11-14T02:56:45.644Z,0.85
2022-11-14T03:01:47.126Z,0.73
2022-11-14T03:06:48.802Z,0.60
2022-11-14T03:11:50.345Z,0.55
2022-11-14T03:16:54.462Z,1.23
2022-11-14T03:21:55.952Z,1.17
2022-11-14T03:26:57.498Z,0.75
2022-11-14T03:31:58.985Z,1.52
2022-11-14T03:37:00.669Z,0.70
2022-11-14T03:42:02.143Z,0.57
2022-11-14T03:47:03.523Z,0.90
2022-11-14T03:52:05.159Z,0.82
2022-11-14T03:57:06.745Z,1.00
2022-11-14T04:02:08.192Z,1.40
2022-11-14T04:07:09.702Z,1.25
2022-11-14T04:12:15.478Z,1.13
2022-11-14T04:17:17.501Z,1.63
2022-11-14T04:22:18.953Z,1.15
2022-11-14T04:27:20.481Z,1.23
2022-11-14T04:32:21.946Z,1.10
2022-11-14T04:37:23.576Z,1.00
2022-11-14T04:42:25.369Z,1.20
2022-11-14T04:47:26.830Z,2.47
2022-11-14T04:52:28.530Z,1.40
2022-11-14T04:57:29.962Z,1.02
2022-11-14T05:02:31.989Z,1.02
2022-11-14T05:07:33.578Z,1.92
2022-11-14T05:12:35.377Z,2.38
2022-11-14T05:17:36.993Z,2.33
2022-11-14T05:22:38.623Z,2.47
2022-11-14T05:27:40.062Z,2.28
2022-11-14T05:32:41.763Z,1.52
2022-11-14T05:37:43.219Z,2.03
2022-11-14T05:42:44.982Z,1.92
2022-11-14T05:47:46.458Z,4.32
2022-11-14T05:52:47.934Z,4.13
2022-11-14T05:57:49.394Z,5.32
2022-11-14T06:02:54.787Z,4.07
2022-11-14T06:07:57.304Z,4.93
2022-11-14T06:12:58.767Z,5.07
2022-11-14T06:18:03.310Z,4.53
2022-11-14T06:23:04.968Z,4.75
2022-11-14T06:28:06.422Z,4.88
2022-11-14T06:33:07.982Z,4.22
2022-11-14T06:38:09.400Z,5.47
2022-11-14T06:43:10.833Z,6.85
2022-11-14T06:48:12.369Z,5.57
2022-11-14T06:53:13.836Z,4.22
2022-11-14T06:58:15.253Z,6.00
2022-11-14T07:03:16.839Z,5.15
2022-11-14T07:08:21.058Z,4.57
2022-11-14T07:13:22.822Z,5.95
2022-11-14T07:18:24.635Z,4.35
2022-11-14T07:23:26.162Z,5.10
2022-11-14T07:28:27.727Z,4.95
2022-11-14T07:33:31.041Z,5.05
2022-11-14T07:38:34.017Z,3.47
2022-11-14T07:43:35.456Z,3.47
2022-11-14T07:48:37.704Z,3.97
2022-11-14T07:53:39.214Z,3.10
2022-11-14T07:58:41.571Z,4.40
2022-11-14T08:03:45.903Z,2.95
2022-11-14T08:08:47.813Z,3.47
2022-11-14T08:13:49.218Z,3.50
2022-11-14T08:18:50.770Z,3.83
2022-11-14T08:23:53.121Z,3.22
2022-11-14T08:28:54.737Z,3.40
2022-11-14T08:33:56.183Z,3.35
2022-11-14T08:39:01.759Z,4.97
2022-11-14T08:44:03.677Z,4.93
2022-11-14T08:49:05.344Z,5.72
2022-11-14T08:54:06.875Z,6.55
2022-11-14T08:59:08.323Z,7.28
2022-11-14T09:04:09.997Z,6.10
2022-11-14T09:09:11.905Z,6.45
2022-11-14T09:14:13.322Z,6.57
2022-11-14T09:19:14.801Z,5.70
2022-11-14T09:24:16.281Z,6.82
2022-11-14T09:29:17.957Z,7.15
2022-11-14T09:34:19.563Z,7.82
2022-11-14T09:39:21.082Z,7.72
2022-11-14T09:44:36.686Z,6.65
2022-11-14T09:49:46.293Z,7.50
2022-11-14T09:55:01.162Z,6.93
2022-11-14T10:00:04.113Z,6.53
2022-11-14T10:05:44.506Z,6.25
2022-11-14T10:10:56.678Z,6.50
2022-11-14T10:16:30.987Z,6.80
2022-11-14T10:22:00.952Z,6.47
2022-11-14T10:27:04.567Z,7.32
2022-11-14T10:32:08.736Z,8.02
2022-11-14T10:37:29.815Z,7.40
2022-11-14T10:42:36.997Z,7.28
2022-11-14T10:47:43.566Z,7.03
2022-11-14T10:52:46.172Z,6.93
2022-11-14T10:57:48.055Z,7.00
2022-11-14T11:02:55.339Z,5.65
2022-11-14T11:08:15.048Z,5.75
2022-11-14T11:13:35.042Z,6.18
2022-11-14T11:18:37.426Z,6.40
2022-11-14T11:24:08.775Z,6.38
2022-11-14T11:29:10.169Z,6.00
2022-11-14T11:34:11.715Z,6.95
2022-11-14T11:39:30.134Z,5.88
2022-11-14T11:44:53.641Z,7.10
2022-11-14T11:49:56.485Z,5.72
2022-11-14T11:55:09.680Z,6.53
2022-11-14T12:00:22.325Z,5.65
2022-11-14T12:05:32.253Z,6.57
2022-11-14T12:10:40.580Z,6.93
2022-11-14T12:15:57.318Z,6.32
2022-11-14T12:21:26.472Z,8.35
2022-11-14T12:26:41.901Z,6.68
2022-11-14T12:31:44.024Z,5.45
2022-11-14T12:36:45.543Z,6.50
2022-11-14T12:41:47.210Z,6.47
2022-11-14T12:47:07.051Z,7.05
2022-11-14T12:52:40.330Z,6.18
2022-11-14T12:57:46.899Z,6.47
2022-11-14T13:02:57.461Z,5.57
2022-11-14T13:08:18.499Z,5.93
2022-11-14T13:13:20.275Z,6.60
2022-11-14T13:18:25.007Z,7.00
2022-11-14T13:23:26.449Z,6.38
2022-11-14T13:28:48.991Z,6.40
2022-11-14T13:33:56.629Z,6.85
2022-11-14T13:39:09.996Z,6.70
2022-11-14T13:44:32.809Z,7.07
2022-11-14T13:50:00.212Z,6.45
2022-11-14T13:55:02.476Z,6.28
2022-11-14T14:00:19.553Z,6.75
2022-11-14T14:05:39.606Z,6.25
2022-11-14T14:10:59.829Z,6.45
2022-11-14T14:16:07.417Z,5.85
2022-11-14T14:21:21.880Z,5.75
2022-11-14T14:26:38.289Z,6.07
2022-11-14T14:31:41.966Z,5.18
2022-11-14T14:36:50.731Z,5.28
2022-11-14T14:41:58.022Z,5.90
2022-11-14T14:47:14.838Z,5.95
2022-11-14T14:52:21.814Z,6.25
2022-11-14T14:57:23.682Z,4.80
2022-11-14T15:02:25.969Z,4.65
2022-11-14T15:07:29.942Z,4.88
2022-11-14T15:12:32.329Z,4.60
2022-11-14T15:17:35.946Z,4.68
2022-11-14T15:22:37.546Z,4.15
2022-11-14T15:28:19.751Z,4.68
2022-11-14T15:33:33.794Z,3.83
2022-11-14T15:38:44.656Z,4.32
2022-11-14T15:43:47.615Z,4.80
2022-11-14T15:49:09.360Z,5.32
2022-11-14T15:54:24.755Z,4.90
2022-11-14T15:59:27.629Z,4.65
2022-11-14T16:04:32.773Z,3.80
2022-11-14T16:09:34.763Z,3.40
2022-11-14T16:14:36.279Z,3.25
2022-11-14T16:19:37.752Z,4.05
2022-11-14T16:24:39.469Z,4.35
2022-11-14T16:29:40.909Z,3.58
2022-11-14T16:34:42.461Z,3.75
2022-11-14T16:39:43.987Z,3.63
2022-11-14T16:44:50.462Z,3.85
2022-11-14T16:49:52.356Z,2.97
2022-11-14T16:54:53.886Z,3.17
2022-11-14T16:59:55.342Z,2.75
2022-11-14T17:04:56.728Z,2.85
2022-11-14T17:09:58.288Z,2.40
2022-11-14T17:14:59.961Z,2.53
2022-11-14T17:20:01.463Z,2.92
2022-11-14T17:25:03.031Z,3.03
2022-11-14T17:30:04.961Z,2.72
2022-11-14T17:35:06.997Z,2.53
2022-11-14T17:40:15.166Z,3.70
2022-11-14T17:45:17.051Z,2.22
2022-11-14T17:50:18.637Z,4.03
2022-11-14T17:55:20.079Z,3.08
2022-11-14T18:00:21.670Z,3.78
2022-11-14T18:05:23.532Z,3.95
2022-11-14T18:10:25.037Z,4.28
2022-11-14T18:15:28.113Z,3.70
2022-11-14T18:20:30.141Z,3.20
2022-11-14T18:25:31.677Z,3.40
2022-11-14T18:30:41.339Z,2.63
2022-11-14T18:35:43.337Z,3.00
2022-11-14T18:40:44.781Z,3.88
2022-11-14T18:45:46.211Z,4.30
2022-11-14T18:50:47.750Z,2.95
2022-11-14T18:55:49.182Z,2.70
2022-11-14T19:00:50.729Z,3.25
2022-11-14T19:05:52.312Z,3.05
2022-11-14T19:10:53.722Z,3.90
2022-11-14T19:15:55.295Z,3.17
2022-11-14T19:21:02.057Z,3.60
2022-11-14T19:26:03.463Z,2.78
2022-11-14T19:31:06.210Z,3.65
2022-11-14T19:36:11.054Z,5.10
2022-11-14T19:41:18.840Z,3.67
2022-11-14T19:46:20.443Z,3.55
2022-11-14T19:51:21.967Z,5.05
2022-11-14T19:56:24.626Z,3.08
2022-11-14T20:01:27.610Z,2.72
2022-11-14T20:06:32.427Z,4.53
2022-11-14T20:11:33.962Z,4.05
2022-11-14T20:16:36.858Z,3.90
2022-11-14T20:21:38.382Z,3.65
2022-11-14T20:26:39.796Z,4.43
2022-11-14T20:31:42.529Z,3.50
2022-11-14T20:37:09.412Z,3.17
2022-11-14T20:42:05.652Z,3.72
2022-11-14T20:47:10.785Z,3.38
2022-11-14T20:52:12.832Z,3.97
2022-11-14T20:57:14.281Z,3.78
2022-11-14T21:02:15.836Z,2.97
2022-11-14T21:07:17.364Z,3.17
2022-11-14T21:12:18.870Z,3.30
2022-11-14T21:17:20.384Z,3.33
2022-11-14T21:22:21.817Z,3.47
2022-11-14T21:27:23.261Z,3.63
2022-11-14T21:32:24.729Z,2.92
2022-11-14T21:37:26.279Z,2.75
2022-11-14T21:42:27.767Z,3.00
2022-11-14T21:47:29.219Z,3.15
2022-11-14T21:52:32.646Z,2.95
2022-11-14T21:57:34.110Z,3.33
2022-11-14T22:02:35.574Z,2.63
2022-11-14T22:07:40.320Z,3.10
2022-11-14T22:12:41.798Z,2.97
2022-11-14T22:17:43.346Z,2.55
2022-11-14T22:22:44.858Z,2.47
2022-11-14T22:27:46.348Z,2.60
2022-11-14T22:32:47.844Z,2.33
2022-11-14T22:37:49.287Z,2.92
2022-11-14T22:42:50.786Z,2.05
2022-11-14T22:47:57.228Z,2.97
2022-11-14T22:52:58.667Z,2.58
2022-11-14T22:58:00.427Z,2.05
2022-11-14T23:03:02.318Z,2.08
2022-11-14T23:08:06.923Z,2.08
2022-11-14T23:13:08.791Z,1.80
2022-11-14T23:18:10.186Z,1.80
2022-11-14T23:23:11.771Z,1.75
2022-11-14T23:28:13.204Z,2.42
2022-11-14T23:33:14.709Z,2.60
2022-11-14T23:38:16.365Z,1.83
2022-11-14T23:43:17.853Z,1.73
2022-11-14T23:48:20.950Z,2.47
2022-11-14T23:53:23.226Z,1.95
2022-11-14T23:58:26.706Z,1.80
